createdAt,value
2019-04-14T00:01:54.796Z,5.60
2019-04-14T00:03:59.239Z,5.60
2019-04-14T00:06:04.718Z,5.60
2019-04-14T00:08:08.875Z,5.60
2019-04-14T00:10:13.817Z,5.60
2019-04-14T00:12:16.820Z,5.60
2019-04-14T00:14:20.672Z,5.60
2019-04-14T00:16:24.816Z,5.60
2019-04-14T00:18:27.679Z,5.60
2019-04-14T00:20:31.507Z,5.50
2019-04-14T00:22:35.612Z,5.50
2019-04-14T00:24:38.472Z,5.50
2019-04-14T00:26:42.281Z,5.50
2019-04-14T00:28:45.147Z,5.50
2019-04-14T00:30:49.042Z,5.60
2019-04-14T00:32:53.598Z,5.60
2019-04-14T00:35:01.659Z,5.70
2019-04-14T00:37:06.294Z,5.70
2019-04-14T00:39:13.977Z,5.70
2019-04-14T00:41:42.171Z,5.70
2019-04-14T00:43:59.154Z,5.80
2019-04-14T00:46:06.530Z,5.80
2019-04-14T00:48:14.250Z,5.80
2019-04-14T00:50:15.423Z,5.70
2019-04-14T00:52:18.983Z,5.70
2019-04-14T00:54:22.004Z,5.70
2019-04-14T00:56:25.854Z,5.70
2019-04-14T00:58:29.898Z,5.70
2019-04-14T01:00:33.925Z,5.70
2019-04-14T01:02:36.908Z,5.70
2019-04-14T01:04:40.480Z,5.70
2019-04-14T01:06:43.330Z,5.70
2019-04-14T01:08:46.835Z,5.80
2019-04-14T01:10:49.817Z,5.80
2019-04-14T01:12:53.842Z,5.80
2019-04-14T01:14:58.131Z,5.80
2019-04-14T01:17:01.048Z,5.80
2019-04-14T01:19:04.780Z,5.80
2019-04-14T01:21:08.813Z,5.80
2019-04-14T01:23:12.892Z,5.80
2019-04-14T01:25:17.028Z,5.80
2019-04-14T01:27:21.012Z,5.80
2019-04-14T01:29:23.884Z,5.80
2019-04-14T01:31:27.372Z,5.90
2019-04-14T01:33:31.486Z,5.90
2019-04-14T01:35:35.655Z,5.90
2019-04-14T01:37:39.672Z,5.90
2019-04-14T01:39:43.458Z,5.80
2019-04-14T01:41:46.357Z,5.80
2019-04-14T01:43:49.645Z,5.80
2019-04-14T01:46:03.970Z,5.80
2019-04-14T01:47:57.534Z,5.80
2019-04-14T01:50:01.659Z,5.80
2019-04-14T01:52:18.853Z,5.80
2019-04-14T01:54:32.434Z,5.80
2019-04-14T01:56:53.760Z,5.80
2019-04-14T01:59:04.450Z,5.80
2019-04-14T02:01:12.712Z,5.80
2019-04-14T02:03:15.649Z,5.80
2019-04-14T02:05:19.201Z,5.90
2019-04-14T02:07:23.277Z,5.90
2019-04-14T02:09:27.225Z,5.90
2019-04-14T02:11:31.277Z,5.90
2019-04-14T02:13:35.348Z,5.80
2019-04-14T02:15:39.492Z,5.80
2019-04-14T02:17:43.776Z,5.80
2019-04-14T02:19:48.008Z,5.90
2019-04-14T02:21:52.035Z,5.80
2019-04-14T02:23:56.050Z,5.80
2019-04-14T02:25:59.986Z,5.80
2019-04-14T02:28:02.925Z,5.80
2019-04-14T02:30:09.343Z,5.90
2019-04-14T02:34:49.534Z,5.80
2019-04-14T02:36:52.439Z,5.80
2019-04-14T02:39:12.004Z,5.90
2019-04-14T02:41:02.694Z,5.90
2019-04-14T02:42:58.149Z,5.80
2019-04-14T02:47:18.328Z,5.80
2019-04-14T02:49:14.760Z,5.80
2019-04-14T02:51:21.162Z,5.90
2019-04-14T02:55:22.159Z,5.80
2019-04-14T02:59:36.329Z,5.90
2019-04-14T03:01:44.966Z,5.90
2019-04-14T03:03:43.708Z,5.90
2019-04-14T03:05:53.105Z,5.90
2019-04-14T03:07:53.665Z,5.90
2019-04-14T03:10:12.701Z,5.90
2019-04-14T03:12:03.083Z,5.90
2019-04-14T03:14:07.455Z,5.90
2019-04-14T03:16:17.410Z,5.90
2019-04-14T03:18:35.586Z,5.90
2019-04-14T03:22:36.905Z,5.90
2019-04-14T03:24:44.436Z,6.00
2019-04-14T03:27:05.770Z,5.80
2019-04-14T03:29:36.774Z,5.90
2019-04-14T03:34:07.478Z,5.90
2019-04-14T03:39:47.524Z,5.80
2019-04-14T03:41:54.873Z,5.80
2019-04-14T03:43:50.084Z,5.90
2019-04-14T03:45:59.226Z,5.90
2019-04-14T03:48:33.813Z,5.90
2019-04-14T03:50:09.683Z,5.80
2019-04-14T03:52:18.472Z,5.80
2019-04-14T03:54:07.892Z,5.90
2019-04-14T03:56:02.418Z,5.90
2019-04-14T03:58:03.708Z,5.90
2019-04-14T04:00:07.462Z,5.90
2019-04-14T04:02:10.358Z,5.90
2019-04-14T04:04:14.037Z,5.90
2019-04-14T04:06:18.087Z,5.90
2019-04-14T04:08:22.253Z,5.90
2019-04-14T04:10:25.214Z,5.90
2019-04-14T04:12:29.173Z,5.90
2019-04-14T04:14:33.371Z,6.00
2019-04-14T04:16:41.906Z,5.90
2019-04-14T04:18:54.337Z,6.00
2019-04-14T04:20:50.818Z,5.90
2019-04-14T04:23:12.035Z,6.00
2019-04-14T04:25:20.371Z,6.00
2019-04-14T04:27:37.539Z,6.00
2019-04-14T04:29:46.214Z,6.10
2019-04-14T04:31:54.645Z,6.00
2019-04-14T04:34:05.389Z,6.00
2019-04-14T04:36:16.039Z,6.10
2019-04-14T04:38:23.296Z,6.10
2019-04-14T04:40:28.933Z,6.10
2019-04-14T04:42:32.921Z,6.20
2019-04-14T04:44:35.850Z,6.20
2019-04-14T04:46:39.488Z,6.20
2019-04-14T04:48:43.583Z,6.30
2019-04-14T04:50:47.632Z,6.30
2019-04-14T04:52:51.571Z,6.20
2019-04-14T04:54:55.833Z,6.20
2019-04-14T04:56:58.799Z,6.30
2019-04-14T04:59:01.619Z,6.30
2019-04-14T05:01:05.566Z,6.20
2019-04-14T05:03:08.484Z,6.30
2019-04-14T05:05:29.591Z,6.30
2019-04-14T05:07:32.369Z,6.40
2019-04-14T05:09:36.920Z,6.50
2019-04-14T05:11:42.561Z,6.50
2019-04-14T05:13:47.166Z,6.50
2019-04-14T05:15:51.235Z,6.50
2019-04-14T05:17:54.026Z,6.50
2019-04-14T05:19:56.821Z,6.50
2019-04-14T05:22:00.566Z,6.60
2019-04-14T05:24:03.539Z,6.60
2019-04-14T05:26:07.067Z,6.60
2019-04-14T05:28:11.168Z,6.60
2019-04-14T05:30:15.333Z,6.60
2019-04-14T05:32:19.377Z,6.60
2019-04-14T05:34:22.376Z,6.60
2019-04-14T05:36:26.007Z,6.60
2019-04-14T05:38:30.943Z,6.70
2019-04-14T05:40:34.310Z,6.70
2019-04-14T05:42:38.384Z,6.70
2019-04-14T05:44:42.532Z,6.80
2019-04-14T05:46:45.414Z,6.80
2019-04-14T05:48:49.230Z,6.90
2019-04-14T05:50:53.321Z,6.90
2019-04-14T05:52:56.280Z,6.90
2019-04-14T05:55:00.007Z,6.90
2019-04-14T05:57:02.888Z,6.90
2019-04-14T05:59:06.707Z,6.80
2019-04-14T06:01:09.823Z,6.80
2019-04-14T06:03:12.640Z,6.80
2019-04-14T06:05:16.485Z,6.80
2019-04-14T06:07:19.447Z,6.90
2019-04-14T06:09:22.244Z,6.90
2019-04-14T06:11:25.052Z,7.00
2019-04-14T06:13:27.845Z,7.00
2019-04-14T06:15:30.749Z,7.00
2019-04-14T06:17:33.605Z,7.10
2019-04-14T06:19:39.187Z,7.20
2019-04-14T06:21:40.866Z,7.30
2019-04-14T06:23:43.733Z,7.30
2019-04-14T06:25:46.530Z,7.40
2019-04-14T06:27:49.349Z,7.40
2019-04-14T06:29:53.797Z,7.40
2019-04-14T06:32:00.699Z,7.30
2019-04-14T06:34:07.973Z,7.40
2019-04-14T06:36:12.397Z,7.50
2019-04-14T06:38:16.823Z,7.50
2019-04-14T06:40:21.073Z,7.50
2019-04-14T06:42:23.880Z,7.50
2019-04-14T06:44:26.658Z,7.60
2019-04-14T06:46:29.457Z,7.70
2019-04-14T06:48:32.245Z,7.80
2019-04-14T06:50:35.201Z,7.80
2019-04-14T06:52:37.998Z,7.90
2019-04-14T06:54:40.777Z,7.90
2019-04-14T06:56:43.583Z,8.00
2019-04-14T06:58:46.390Z,8.10
2019-04-14T07:00:49.258Z,8.00
2019-04-14T07:02:52.046Z,8.00
2019-04-14T07:04:54.905Z,8.00
2019-04-14T07:06:57.718Z,8.00
2019-04-14T07:09:00.515Z,8.10
2019-04-14T07:11:03.374Z,8.10
2019-04-14T07:13:06.171Z,8.10
2019-04-14T07:15:09.197Z,8.20
2019-04-14T07:17:12.086Z,8.30
2019-04-14T07:19:14.920Z,8.30
2019-04-14T07:21:17.720Z,8.30
2019-04-14T07:23:20.497Z,8.30
2019-04-14T07:25:23.296Z,8.30
2019-04-14T07:27:26.124Z,8.30
2019-04-14T07:29:30.543Z,8.40
2019-04-14T07:31:40.507Z,8.40
2019-04-14T07:33:47.670Z,8.50
2019-04-14T07:35:58.230Z,8.60
2019-04-14T07:38:02.719Z,8.70
2019-04-14T07:40:16.894Z,8.80
2019-04-14T07:42:37.899Z,8.90
2019-04-14T07:44:54.629Z,8.90
2019-04-14T07:47:17.124Z,8.90
2019-04-14T07:49:24.588Z,8.90
2019-04-14T07:51:38.015Z,8.90
2019-04-14T07:53:45.372Z,8.90
2019-04-14T07:55:49.812Z,8.90
2019-04-14T07:58:06.260Z,8.90
2019-04-14T08:00:17.361Z,8.80
2019-04-14T08:02:21.792Z,8.80
2019-04-14T08:04:29.197Z,8.70
2019-04-14T08:06:32.684Z,8.80
2019-04-14T08:08:35.494Z,8.80
2019-04-14T08:10:38.286Z,8.90
2019-04-14T08:12:41.092Z,8.90
2019-04-14T08:14:43.919Z,8.90
2019-04-14T08:16:46.726Z,9.00
2019-04-14T08:18:49.514Z,9.20
2019-04-14T08:20:52.384Z,9.40
2019-04-14T08:22:57.665Z,9.40
2019-04-14T08:24:59.607Z,9.50
2019-04-14T08:27:02.414Z,9.60
2019-04-14T08:29:05.364Z,9.70
2019-04-14T08:31:08.296Z,9.90
2019-04-14T08:33:11.084Z,10.00
2019-04-14T08:35:13.947Z,10.00
2019-04-14T08:37:17.826Z,10.20
2019-04-14T08:39:20.540Z,10.30
2019-04-14T08:41:23.441Z,10.40
2019-04-14T08:43:27.866Z,10.40
2019-04-14T08:45:32.330Z,10.30
2019-04-14T08:47:36.760Z,10.30
2019-04-14T08:49:46.964Z,10.20
2019-04-14T08:52:06.264Z,10.00
2019-04-14T08:54:25.837Z,9.90
2019-04-14T08:56:39.158Z,10.00
2019-04-14T08:58:43.601Z,10.10
2019-04-14T09:00:54.299Z,10.20
2019-04-14T09:02:58.756Z,10.30
2019-04-14T09:05:03.192Z,10.40
2019-04-14T09:07:23.847Z,10.50
2019-04-14T09:09:28.346Z,10.60
2019-04-14T09:11:35.515Z,10.70
2019-04-14T09:13:38.307Z,10.80
2019-04-14T09:15:41.088Z,10.90
2019-04-14T09:17:43.909Z,10.90
2019-04-14T09:19:46.704Z,11.00
2019-04-14T09:21:49.509Z,11.00
2019-04-14T09:23:52.351Z,11.00
2019-04-14T09:25:55.125Z,10.80
2019-04-14T09:27:57.944Z,10.90
2019-04-14T09:30:00.812Z,11.00
2019-04-14T09:32:05.312Z,11.00
2019-04-14T09:34:08.205Z,11.00
2019-04-14T09:36:10.989Z,11.10
2019-04-14T09:38:13.881Z,11.00
2019-04-14T09:40:16.670Z,10.90
2019-04-14T09:42:19.460Z,11.00
2019-04-14T09:44:22.285Z,11.10
2019-04-14T09:46:25.068Z,11.20
2019-04-14T09:48:27.896Z,11.40
2019-04-14T09:50:30.709Z,11.50
2019-04-14T09:52:33.491Z,11.60
2019-04-14T09:54:36.315Z,11.70
2019-04-14T09:56:39.139Z,11.70
2019-04-14T09:58:41.931Z,11.70
2019-04-14T10:00:45.014Z,11.70
2019-04-14T10:02:47.861Z,11.60
2019-04-14T10:04:50.698Z,11.70
2019-04-14T10:06:53.593Z,11.80
2019-04-14T10:08:56.360Z,11.80
2019-04-14T10:10:59.183Z,11.80
2019-04-14T10:13:01.974Z,11.80
2019-04-14T10:15:05.647Z,11.90
2019-04-14T10:17:08.490Z,12.00
2019-04-14T10:19:11.285Z,12.10
2019-04-14T10:21:17.646Z,12.30
2019-04-14T10:23:18.589Z,12.40
2019-04-14T10:25:21.379Z,12.40
2019-04-14T10:27:24.202Z,12.50
2019-04-14T10:29:27.006Z,12.40
2019-04-14T10:31:29.830Z,12.20
2019-04-14T10:33:32.643Z,12.10
2019-04-14T10:35:35.476Z,12.00
2019-04-14T10:37:38.401Z,12.00
2019-04-14T10:39:41.204Z,12.10
2019-04-14T10:41:43.996Z,12.00
2019-04-14T10:43:46.822Z,12.10
2019-04-14T10:45:49.715Z,12.10
2019-04-14T10:47:52.516Z,12.10
2019-04-14T10:49:55.335Z,12.00
2019-04-14T10:51:58.119Z,12.10
2019-04-14T10:54:00.912Z,12.10
2019-04-14T10:56:04.082Z,12.10
2019-04-14T10:58:07.037Z,12.20
2019-04-14T11:00:11.782Z,12.30
2019-04-14T11:02:14.787Z,12.40
2019-04-14T11:04:17.573Z,12.40
2019-04-14T11:06:22.031Z,12.50
2019-04-14T11:08:24.892Z,12.70
2019-04-14T11:10:27.702Z,12.90
2019-04-14T11:12:30.546Z,13.00
2019-04-14T11:14:33.478Z,13.10
2019-04-14T11:16:36.348Z,13.20
2019-04-14T11:18:39.243Z,13.20
2019-04-14T11:20:42.047Z,13.30
2019-04-14T11:22:44.914Z,13.40
2019-04-14T11:24:47.805Z,13.50
2019-04-14T11:26:50.593Z,13.70
2019-04-14T11:28:53.466Z,13.90
2019-04-14T11:30:56.268Z,14.00
2019-04-14T11:33:06.712Z,14.10
2019-04-14T11:35:11.199Z,14.10
2019-04-14T11:37:15.664Z,14.10
2019-04-14T11:39:22.033Z,14.10
2019-04-14T11:41:24.931Z,14.20
2019-04-14T11:43:27.720Z,14.30
2019-04-14T11:45:30.543Z,14.30
2019-04-14T11:47:33.343Z,14.40
2019-04-14T11:49:36.170Z,14.60
2019-04-14T11:51:38.980Z,14.60
2019-04-14T11:53:41.788Z,14.60
2019-04-14T11:55:44.587Z,14.50
2019-04-14T11:57:47.412Z,14.60
2019-04-14T11:59:54.869Z,14.80
2019-04-14T12:02:11.303Z,14.80
2019-04-14T12:04:15.767Z,15.00
2019-04-14T12:06:36.312Z,15.10
2019-04-14T12:08:40.932Z,15.00
2019-04-14T12:10:43.716Z,15.00
2019-04-14T12:12:46.649Z,15.10
2019-04-14T12:14:49.496Z,15.10
2019-04-14T12:16:52.308Z,15.00
2019-04-14T12:18:55.129Z,15.00
2019-04-14T12:20:57.948Z,15.00
2019-04-14T12:23:00.762Z,14.90
2019-04-14T12:25:03.836Z,14.70
2019-04-14T12:27:06.730Z,14.60
2019-04-14T12:29:09.757Z,14.70
2019-04-14T12:31:13.116Z,14.80
2019-04-14T12:33:16.095Z,14.90
2019-04-14T12:35:19.457Z,14.90
2019-04-14T12:37:22.261Z,15.00
2019-04-14T12:39:25.122Z,15.10
2019-04-14T12:41:33.215Z,14.90
2019-04-14T12:43:37.737Z,14.90
2019-04-14T12:45:48.270Z,14.80
2019-04-14T12:47:56.094Z,14.70
2019-04-14T12:50:00.511Z,14.80
2019-04-14T12:52:21.491Z,14.90
2019-04-14T12:54:21.786Z,15.10
2019-04-14T12:56:26.269Z,15.20
2019-04-14T12:58:42.751Z,15.30
2019-04-14T13:00:47.169Z,15.30
2019-04-14T13:02:51.618Z,15.40
2019-04-14T13:04:55.450Z,15.30
2019-04-14T13:06:58.355Z,15.20
2019-04-14T13:09:01.151Z,15.20
2019-04-14T13:11:04.999Z,15.20
2019-04-14T13:13:07.786Z,15.10
2019-04-14T13:15:10.709Z,15.10
2019-04-14T13:17:13.576Z,15.00
2019-04-14T13:19:16.369Z,15.00
2019-04-14T13:21:19.237Z,15.20
2019-04-14T13:23:22.136Z,15.20
2019-04-14T13:25:25.063Z,15.20
2019-04-14T13:27:27.870Z,15.30
2019-04-14T13:29:30.699Z,15.40
2019-04-14T13:31:33.501Z,15.60
2019-04-14T13:33:36.431Z,15.80
2019-04-14T13:35:39.213Z,15.70
2019-04-14T13:37:42.041Z,15.70
2019-04-14T13:39:44.842Z,15.70
2019-04-14T13:41:47.854Z,15.50
2019-04-14T13:43:50.657Z,15.50
2019-04-14T13:45:53.563Z,15.50
2019-04-14T13:47:56.339Z,15.40
2019-04-14T13:49:59.325Z,15.40
2019-04-14T13:52:02.251Z,15.60
2019-04-14T13:54:05.034Z,16.10
2019-04-14T13:56:07.839Z,16.10
2019-04-14T13:58:10.846Z,16.10
2019-04-14T14:00:14.496Z,16.10
2019-04-14T14:02:17.402Z,16.10
2019-04-14T14:04:20.312Z,15.70
2019-04-14T14:06:23.193Z,15.60
2019-04-14T14:08:26.292Z,15.40
2019-04-14T14:10:30.162Z,15.20
2019-04-14T14:12:40.229Z,15.20
2019-04-14T14:14:44.629Z,15.10
2019-04-14T14:16:57.998Z,15.10
2019-04-14T14:19:02.426Z,15.20
2019-04-14T14:21:16.018Z,15.50
2019-04-14T14:23:36.860Z,15.80
2019-04-14T14:25:41.328Z,15.90
2019-04-14T14:27:44.178Z,16.30
2019-04-14T14:29:46.971Z,16.50
2019-04-14T14:31:50.232Z,16.70
2019-04-14T14:33:53.005Z,17.00
2019-04-14T14:35:55.958Z,17.20
2019-04-14T14:37:58.774Z,16.90
2019-04-14T14:40:01.578Z,16.60
2019-04-14T14:42:04.440Z,16.10
2019-04-14T14:44:07.263Z,15.90
2019-04-14T14:46:14.178Z,15.60
2019-04-14T14:48:24.188Z,15.40
2019-04-14T14:50:31.686Z,15.30
2019-04-14T14:52:36.044Z,15.20
2019-04-14T14:54:38.879Z,15.20
2019-04-14T14:56:41.686Z,15.20
2019-04-14T14:58:45.441Z,15.20
2019-04-14T15:00:48.433Z,15.20
2019-04-14T15:02:51.294Z,15.50
2019-04-14T15:04:54.119Z,15.60
2019-04-14T15:06:56.929Z,15.40
2019-04-14T15:08:59.902Z,15.50
2019-04-14T15:11:04.204Z,16.10
2019-04-14T15:13:07.400Z,16.70
2019-04-14T15:15:10.580Z,17.10
2019-04-14T15:17:13.634Z,17.20
2019-04-14T15:19:16.696Z,17.40
2019-04-14T15:21:19.485Z,17.50
2019-04-14T15:23:25.115Z,17.50
2019-04-14T15:25:26.867Z,17.90
2019-04-14T15:27:31.718Z,18.10
2019-04-14T15:29:35.069Z,17.90
2019-04-14T15:31:37.865Z,18.00
2019-04-14T15:33:40.717Z,18.00
2019-04-14T15:35:43.571Z,18.00
2019-04-14T15:37:46.366Z,17.70
2019-04-14T15:39:49.242Z,17.10
2019-04-14T15:41:52.046Z,16.60
2019-04-14T15:43:54.952Z,16.50
2019-04-14T15:45:57.825Z,16.60
2019-04-14T15:48:00.634Z,17.00
2019-04-14T15:50:04.585Z,17.20
2019-04-14T15:52:07.398Z,17.10
2019-04-14T15:54:10.238Z,16.50
2019-04-14T15:56:14.742Z,16.00
2019-04-14T15:58:19.262Z,15.70
2019-04-14T16:00:42.008Z,15.60
2019-04-14T16:03:03.012Z,16.00
2019-04-14T16:05:07.709Z,16.60
2019-04-14T16:07:20.913Z,17.00
2019-04-14T16:09:34.460Z,17.10
2019-04-14T16:11:40.043Z,17.00
2019-04-14T16:13:44.609Z,17.00
2019-04-14T16:15:52.045Z,16.60
2019-04-14T16:18:11.619Z,16.20
2019-04-14T16:20:18.720Z,16.10
2019-04-14T16:22:21.520Z,16.10
2019-04-14T16:24:24.430Z,16.00
2019-04-14T16:26:28.895Z,15.90
2019-04-14T16:28:36.153Z,15.60
2019-04-14T16:30:43.302Z,15.30
2019-04-14T16:32:47.734Z,14.90
2019-04-14T16:34:55.168Z,14.50
2019-04-14T16:36:58.016Z,14.40
2019-04-14T16:39:05.422Z,14.20
2019-04-14T16:41:08.237Z,14.10
2019-04-14T16:43:11.071Z,13.90
2019-04-14T16:45:14.044Z,13.90
2019-04-14T16:47:16.879Z,14.00
2019-04-14T16:49:19.675Z,14.10
2019-04-14T16:51:29.902Z,14.10
2019-04-14T16:53:34.392Z,14.10
2019-04-14T16:55:47.699Z,14.00
2019-04-14T16:58:04.457Z,14.00
2019-04-14T17:00:09.056Z,13.90
2019-04-14T17:02:12.870Z,13.80
2019-04-14T17:04:15.937Z,13.70
2019-04-14T17:06:18.830Z,13.70
2019-04-14T17:08:21.627Z,13.50
2019-04-14T17:10:24.436Z,13.40
2019-04-14T17:12:27.229Z,13.20
2019-04-14T17:14:37.591Z,13.10
2019-04-14T17:16:57.106Z,12.90
2019-04-14T17:19:07.103Z,12.80
2019-04-14T17:21:23.857Z,12.80
2019-04-14T17:23:37.357Z,12.70
2019-04-14T17:25:54.062Z,12.60
2019-04-14T17:28:04.318Z,12.50
2019-04-14T17:30:21.085Z,12.50
2019-04-14T17:32:34.587Z,12.40
2019-04-14T17:34:39.032Z,12.30
2019-04-14T17:36:46.345Z,12.30
2019-04-14T17:38:59.627Z,12.20
2019-04-14T17:41:04.098Z,12.10
2019-04-14T17:43:08.534Z,12.10
2019-04-14T17:45:15.850Z,12.00
2019-04-14T17:47:32.258Z,11.90
2019-04-14T17:49:39.375Z,11.80
2019-04-14T17:51:46.713Z,11.80
2019-04-14T17:53:51.242Z,11.70
2019-04-14T17:56:10.896Z,11.70
2019-04-14T17:58:15.328Z,11.60
2019-04-14T18:00:19.866Z,11.50
2019-04-14T18:02:24.389Z,11.50
2019-04-14T18:04:31.604Z,11.50
2019-04-14T18:06:48.398Z,11.40
2019-04-14T18:09:02.117Z,11.40
2019-04-14T18:11:21.588Z,11.30
2019-04-14T18:13:32.311Z,11.30
2019-04-14T18:15:42.795Z,11.20
2019-04-14T18:17:53.273Z,11.20
2019-04-14T18:19:59.006Z,11.20
2019-04-14T18:22:01.794Z,11.10
2019-04-14T18:24:05.933Z,11.10
2019-04-14T18:26:09.384Z,11.10
2019-04-14T18:28:25.824Z,11.10
2019-04-14T18:30:30.342Z,11.00
2019-04-14T18:32:37.523Z,11.00
2019-04-14T18:34:47.900Z,10.90
2019-04-14T18:36:58.133Z,10.80
2019-04-14T18:39:11.488Z,10.80
2019-04-14T18:41:21.944Z,10.70
2019-04-14T18:43:26.409Z,10.60
2019-04-14T18:45:33.801Z,10.60
2019-04-14T18:47:47.515Z,10.60
2019-04-14T18:49:54.798Z,10.60
2019-04-14T18:52:07.954Z,10.50
2019-04-14T18:54:15.348Z,10.50
2019-04-14T18:56:36.576Z,10.40
2019-04-14T18:58:41.002Z,10.40
2019-04-14T19:00:51.453Z,10.30
2019-04-14T19:02:54.242Z,10.30
2019-04-14T19:04:57.114Z,10.30
2019-04-14T19:06:59.940Z,10.30
2019-04-14T19:09:03.140Z,10.20
2019-04-14T19:11:16.791Z,10.20
2019-04-14T19:13:21.239Z,10.20
2019-04-14T19:15:31.214Z,10.20
2019-04-14T19:17:38.416Z,10.20
2019-04-14T19:19:45.639Z,10.10
2019-04-14T19:21:48.597Z,10.10
2019-04-14T19:23:51.378Z,10.00
2019-04-14T19:25:54.232Z,10.00
2019-04-14T19:27:57.016Z,9.90
2019-04-14T19:29:59.839Z,9.90
2019-04-14T19:32:02.640Z,9.90
2019-04-14T19:34:05.423Z,9.80
2019-04-14T19:36:08.282Z,9.80
2019-04-14T19:38:11.978Z,9.80
2019-04-14T19:40:14.941Z,9.70
2019-04-14T19:42:18.108Z,9.70
2019-04-14T19:44:20.912Z,9.60
2019-04-14T19:46:23.741Z,9.60
2019-04-14T19:48:26.541Z,9.60
2019-04-14T19:50:29.334Z,9.50
2019-04-14T19:52:32.141Z,9.50
2019-04-14T19:54:35.069Z,9.50
2019-04-14T19:56:37.814Z,9.50
2019-04-14T19:58:40.608Z,9.40
2019-04-14T20:00:43.408Z,9.40
2019-04-14T20:02:46.290Z,9.40
2019-04-14T20:04:49.193Z,9.30
2019-04-14T20:06:51.989Z,9.20
2019-04-14T20:08:54.791Z,9.30
2019-04-14T20:10:57.686Z,9.20
2019-04-14T20:13:00.541Z,9.10
2019-04-14T20:15:03.986Z,9.10
2019-04-14T20:17:08.419Z,9.10
2019-04-14T20:19:29.176Z,9.10
2019-04-14T20:21:45.524Z,9.10
2019-04-14T20:23:51.837Z,9.00
2019-04-14T20:25:59.043Z,9.00
2019-04-14T20:28:06.334Z,8.90
2019-04-14T20:30:27.528Z,8.90
2019-04-14T20:32:31.969Z,8.80
2019-04-14T20:34:35.061Z,8.80
2019-04-14T20:36:38.121Z,8.80
2019-04-14T20:38:40.950Z,8.70
2019-04-14T20:40:43.773Z,8.70
2019-04-14T20:42:46.656Z,8.70
2019-04-14T20:44:49.616Z,8.60
2019-04-14T20:46:52.421Z,8.60
2019-04-14T20:48:55.635Z,8.60
2019-04-14T20:50:59.197Z,8.60
2019-04-14T20:53:03.682Z,8.50
2019-04-14T20:55:08.688Z,8.50
2019-04-14T20:57:14.169Z,8.40
2019-04-14T20:59:21.512Z,8.50
2019-04-14T21:01:27.760Z,8.40
2019-04-14T21:03:38.170Z,8.40
2019-04-14T21:05:42.617Z,8.40
2019-04-14T21:07:49.723Z,8.30
2019-04-14T21:09:57.087Z,8.20
2019-04-14T21:12:01.522Z,8.30
2019-04-14T21:14:18.101Z,8.30
2019-04-14T21:16:22.606Z,8.20
2019-04-14T21:18:29.978Z,8.20
2019-04-14T21:20:40.461Z,8.20
2019-04-14T21:22:53.533Z,8.10
2019-04-14T21:24:57.958Z,8.10
2019-04-14T21:27:02.415Z,8.10
2019-04-14T21:29:12.864Z,8.10
2019-04-14T21:31:17.366Z,8.10
2019-04-14T21:33:36.941Z,8.10
2019-04-14T21:35:41.357Z,8.00
2019-04-14T21:37:45.796Z,8.00
2019-04-14T21:39:50.293Z,8.00
2019-04-14T21:41:53.681Z,7.90
2019-04-14T21:43:56.479Z,7.90
2019-04-14T21:45:59.262Z,7.90
2019-04-14T21:48:02.061Z,7.90
2019-04-14T21:50:05.362Z,7.80
2019-04-14T21:52:09.845Z,7.80
2019-04-14T21:54:12.745Z,7.80
2019-04-14T21:56:15.563Z,7.80
2019-04-14T21:58:35.285Z,7.80
2019-04-14T22:00:53.249Z,7.80
2019-04-14T22:03:03.886Z,7.70
2019-04-14T22:05:08.549Z,7.70
2019-04-14T22:07:25.231Z,7.70
2019-04-14T22:09:29.675Z,7.70
2019-04-14T22:11:32.461Z,7.70
2019-04-14T22:13:35.325Z,7.60
2019-04-14T22:15:38.162Z,7.50
2019-04-14T22:17:40.958Z,7.50
2019-04-14T22:19:43.746Z,7.60
2019-04-14T22:21:47.555Z,7.50
2019-04-14T22:25:33.353Z,7.50
2019-04-14T22:27:37.071Z,7.50
2019-04-14T22:29:40.646Z,7.50
2019-04-14T22:31:43.552Z,7.40
2019-04-14T22:33:47.187Z,7.40
2019-04-14T22:35:50.828Z,7.40
2019-04-14T22:37:54.429Z,7.40
2019-04-14T22:39:57.225Z,7.40
2019-04-14T22:42:00.871Z,7.40
2019-04-14T22:44:04.543Z,7.30
2019-04-14T22:46:08.189Z,7.30
2019-04-14T22:48:11.890Z,7.30
2019-04-14T22:50:15.618Z,7.30
2019-04-14T22:52:19.264Z,7.30
2019-04-14T22:54:22.838Z,7.30
2019-04-14T22:56:38.263Z,7.20
2019-04-14T22:58:30.959Z,7.20
2019-04-14T23:00:39.312Z,7.20
2019-04-14T23:02:47.250Z,7.20
2019-04-14T23:04:55.427Z,7.20
2019-04-14T23:07:03.591Z,7.10
2019-04-14T23:09:11.457Z,7.10
2019-04-14T23:11:19.426Z,7.00
2019-04-14T23:13:24.740Z,7.10
2019-04-14T23:15:35.571Z,7.00
2019-04-14T23:17:43.771Z,7.00
2019-04-14T23:19:49.064Z,7.00
2019-04-14T23:21:57.292Z,7.10
2019-04-14T23:24:11.654Z,7.10
2019-04-14T23:26:15.221Z,7.00
2019-04-14T23:28:18.125Z,7.00
2019-04-14T23:30:21.682Z,7.00
2019-04-14T23:32:24.512Z,7.00
2019-04-14T23:34:28.098Z,6.90
2019-04-14T23:36:30.911Z,6.90
2019-04-14T23:38:34.485Z,6.90
2019-04-14T23:40:37.295Z,6.80
2019-04-14T23:42:40.860Z,6.80
2019-04-14T23:44:43.686Z,6.80
2019-04-14T23:46:47.338Z,6.70
2019-04-14T23:48:50.984Z,6.60
2019-04-14T23:50:54.662Z,6.70
2019-04-14T23:52:58.302Z,6.70
2019-04-14T23:55:01.936Z,6.70
2019-04-14T23:57:06.767Z,6.60
2019-04-14T23:59:10.529Z,6.60
